Time;durP1;ratioP1;P1;durP2;ratioP2;P2;SDS_P1;SDS_P2;PMS_P1;PMS_P2;Temp;Humidity;BMP_temperature;BMP_pressure;BME280_temperature;BME280_humidity;BME280_pressure;Samples;Min_cycle;Max_cycle;Signal;HPM_P1;HPM_P2
2021/01/17 00:00:47;;;;;;;50.00;14.03;;;;;;;-19.07;71.82;99265.62;1819613;78;21034;-78
2021/01/17 00:03:16;;;;;;;55.03;15.15;;;;;;;-19.03;71.93;99273.17;1819461;77;21461;-78
2021/01/17 00:05:44;;;;;;;54.63;16.35;;;;;;;-18.98;72.07;99266.58;1819549;78;21549;-78
2021/01/17 00:08:13;;;;;;;47.48;13.08;;;;;;;-18.94;72.01;99261.42;1819214;78;21545;-78
2021/01/17 00:10:42;;;;;;;45.50;13.95;;;;;;;-18.92;72.03;99266.03;1819427;78;21553;-77
2021/01/17 00:13:10;;;;;;;47.80;14.45;;;;;;;-18.93;71.85;99262.25;1819442;78;21014;-77
2021/01/17 00:15:37;;;;;;;52.27;17.73;;;;;;;-18.93;71.90;99266.17;1819446;77;21260;-77
2021/01/17 00:18:05;;;;;;;33.88;8.95;;;;;;;-18.93;71.90;99261.77;1805678;78;21489;-80
2021/01/17 00:20:33;;;;;;;29.30;8.75;;;;;;;-18.91;71.79;99260.32;1819440;78;20958;-79
2021/01/17 00:23:04;;;;;;;38.80;13.58;;;;;;;-18.98;71.56;99258.73;1819416;78;20934;-79
2021/01/17 00:25:31;;;;;;;58.48;14.43;;;;;;;-19.09;71.38;99257.09;1819584;77;21593;-80
2021/01/17 00:28:01;;;;;;;47.17;15.28;;;;;;;-19.16;71.42;99261.20;1819419;77;21320;-80
2021/01/17 00:30:31;;;;;;;40.95;13.83;;;;;;;-19.17;71.57;99268.70;1819387;78;20931;-80
2021/01/17 00:33:01;;;;;;;36.48;11.35;;;;;;;-19.16;71.70;99259.89;1819476;78;21038;-80
2021/01/17 00:35:31;;;;;;;53.78;16.65;;;;;;;-19.14;71.70;99255.84;1819565;78;21052;-80
2021/01/17 00:38:01;;;;;;;44.35;12.95;;;;;;;-19.15;71.78;99258.11;1819615;78;20918;-80
2021/01/17 00:40:29;;;;;;;73.12;20.15;;;;;;;-19.15;71.76;99258.11;1821697;78;22323;-81
2021/01/17 00:42:57;;;;;;;52.25;16.20;;;;;;;-19.20;71.65;99265.05;1825410;77;21145;-83
2021/01/17 00:45:26;;;;;;;75.35;20.65;;;;;;;-19.21;71.79;99259.95;1834939;77;20982;-83
2021/01/17 00:47:55;;;;;;;70.92;19.50;;;;;;;-19.20;71.94;99260.30;1820022;77;20990;-82
2021/01/17 00:50:25;;;;;;;58.28;18.77;;;;;;;-19.19;71.93;99257.55;1820074;77;20899;-84
2021/01/17 00:52:55;;;;;;;70.75;19.37;;;;;;;-19.17;71.85;99273.11;1819599;77;21347;-86
2021/01/17 00:55:24;;;;;;;73.87;20.52;;;;;;;-19.17;71.82;99275.25;1819599;78;21143;-85
2021/01/17 00:57:52;;;;;;;86.10;23.30;;;;;;;-19.18;71.88;99270.97;1806039;78;20975;-85
2021/01/17 01:00:23;;;;;;;66.87;20.72;;;;;;;-19.17;71.89;99273.94;1820750;78;21136;-85
2021/01/17 01:03:14;;;;;;;64.95;19.23;;;;;;;-19.11;72.16;99269.95;1873600;75;22703;-84
2021/01/17 01:05:41;;;;;;;74.00;19.55;;;;;;;-19.18;71.84;99281.92;1841747;78;20900;-83
2021/01/17 01:08:09;;;;;;;63.58;16.85;;;;;;;-19.24;71.86;99281.14;1841647;78;21414;-83
2021/01/17 01:10:37;;;;;;;87.50;21.50;;;;;;;-19.26;71.90;99276.53;1841766;77;21570;-83
2021/01/17 01:13:04;;;;;;;82.55;22.22;;;;;;;-19.27;71.96;99285.33;1841687;78;20936;-83
2021/01/17 01:15:32;;;;;;;73.90;20.35;;;;;;;-19.30;72.03;99289.52;1841628;77;20980;-82
2021/01/17 01:18:00;;;;;;;67.85;17.48;;;;;;;-19.31;72.21;99293.09;1841693;77;20999;-80
2021/01/17 01:20:27;;;;;;;60.10;17.65;;;;;;;-19.30;72.36;99296.89;1841690;77;21346;-81
2021/01/17 01:22:55;;;;;;;63.20;18.23;;;;;;;-19.28;72.28;99299.37;1841619;77;20940;-78
2021/01/17 01:25:22;;;;;;;70.20;21.00;;;;;;;-19.25;72.41;99291.26;1841674;77;21055;-78
2021/01/17 01:27:51;;;;;;;65.05;16.62;;;;;;;-19.20;72.50;99295.13;1841202;77;20877;-79
2021/01/17 01:30:21;;;;;;;75.55;21.85;;;;;;;-19.19;72.47;99281.57;1814630;78;20873;-78
2021/01/17 01:32:51;;;;;;;70.00;19.20;;;;;;;-19.19;72.39;99273.72;1808613;78;21315;-78
2021/01/17 01:35:19;;;;;;;118.60;29.72;;;;;;;-19.19;72.28;99272.41;1808700;79;21558;-80
2021/01/17 01:37:47;;;;;;;84.85;21.27;;;;;;;-19.26;72.03;99272.60;1808602;79;21570;-80
2021/01/17 01:40:16;;;;;;;83.33;20.52;;;;;;;-19.29;72.07;99268.95;1808563;79;21011;-80
2021/01/17 01:42:43;;;;;;;93.67;22.50;;;;;;;-19.33;72.06;99263.63;1808596;78;21019;-79
2021/01/17 01:45:12;;;;;;;77.27;19.00;;;;;;;-19.36;72.19;99263.90;1808557;79;21256;-84
2021/01/17 01:47:40;;;;;;;95.90;24.30;;;;;;;-19.37;72.14;99258.32;1808633;79;21148;-83
2021/01/17 01:50:10;;;;;;;65.95;19.05;;;;;;;-19.43;72.11;99267.05;1779931;79;20991;-83
2021/01/17 01:52:38;;;;;;;79.20;21.17;;;;;;;-19.41;72.18;99272.97;1779918;79;21138;-79
2021/01/17 01:55:08;;;;;;;64.65;18.42;;;;;;;-19.38;72.29;99271.05;1808650;78;21204;-79
2021/01/17 01:57:35;;;;;;;61.65;18.70;;;;;;;-19.36;72.33;99271.27;1808612;79;21189;-79
2021/01/17 02:00:06;;;;;;;66.70;20.55;;;;;;;-19.37;72.25;99272.70;1808505;78;20940;-78
2021/01/17 02:02:44;;;;;;;66.45;18.82;;;;;;;-19.37;72.27;99265.69;1804214;79;20980;-78
2021/01/17 02:05:12;;;;;;;65.67;18.07;;;;;;;-19.37;72.30;99264.86;1808700;79;21451;-78
2021/01/17 02:08:08;;;;;;;67.17;19.67;;;;;;;-19.35;72.41;99259.02;1808625;79;21059;-78
2021/01/17 02:10:35;;;;;;;64.67;18.82;;;;;;;-19.35;72.51;99258.53;1808636;79;21761;-78
2021/01/17 02:13:23;;;;;;;51.75;16.55;;;;;;;-19.35;72.41;99262.94;1808511;79;21534;-78
2021/01/17 02:15:53;;;;;;;64.42;20.30;;;;;;;-19.34;72.48;99256.75;1779019;79;20948;-78
2021/01/17 02:18:22;;;;;;;66.90;20.32;;;;;;;-19.33;72.55;99261.02;1808098;78;20924;-78
2021/01/17 02:20:50;;;;;;;63.65;20.32;;;;;;;-19.27;72.55;99255.25;1808050;79;20992;-79
2021/01/17 02:23:28;;;;;;;55.78;17.30;;;;;;;-19.22;72.36;99256.98;1807991;78;22269;-79
2021/01/17 02:25:55;;;;;;;54.38;16.95;;;;;;;-19.16;72.19;99261.69;1808069;79;21586;-78
2021/01/17 02:28:23;;;;;;;53.08;18.57;;;;;;;-19.15;71.87;99259.41;1807946;78;20940;-78
2021/01/17 03:24:05;;;;;;;83.35;20.45;;;;;;;-19.79;72.07;99253.27;1788525;78;20933;-77
2021/01/17 03:26:33;;;;;;;66.70;18.52;;;;;;;-19.87;72.35;99250.48;1777901;79;22433;-77
2021/01/17 03:29:00;;;;;;;78.45;21.05;;;;;;;-19.87;72.55;99246.56;1776608;80;21004;-77
2021/01/17 03:31:28;;;;;;;69.60;21.42;;;;;;;-19.87;72.64;99244.78;1778024;80;20933;-77
2021/01/17 03:33:55;;;;;;;85.30;23.57;;;;;;;-19.83;72.72;99246.65;1778036;80;20881;-77
2021/01/17 03:36:22;;;;;;;66.15;18.20;;;;;;;-19.79;72.85;99241.03;1778043;80;20941;-77
2021/01/17 03:38:50;;;;;;;94.35;25.65;;;;;;;-19.77;72.80;99235.20;1778130;79;21965;-76
2021/01/17 03:41:18;;;;;;;79.55;24.07;;;;;;;-19.77;72.78;99235.20;1778728;79;21136;-79
2021/01/17 03:43:45;;;;;;;124.60;30.40;;;;;;;-19.76;72.93;99243.86;1778054;80;20889;-81
2021/01/17 03:46:13;;;;;;;114.42;31.50;;;;;;;-19.75;72.96;99233.75;1778030;79;21077;-81
2021/01/17 03:48:40;;;;;;;79.15;19.27;;;;;;;-19.78;72.84;99231.41;1778023;80;20932;-81
2021/01/17 03:51:09;;;;;;;69.67;19.15;;;;;;;-19.79;72.88;99238.90;1779071;80;21367;-81
2021/01/17 03:53:36;;;;;;;93.55;22.00;;;;;;;-19.85;72.70;99238.11;1779013;79;21007;-79
2021/01/17 03:56:05;;;;;;;96.55;26.82;;;;;;;-19.95;72.58;99238.07;1778363;79;21551;-80
2021/01/17 03:58:33;;;;;;;102.87;29.10;;;;;;;-20.01;72.73;99232.05;1778092;80;21090;-81
2021/01/17 04:01:00;;;;;;;84.62;25.68;;;;;;;-20.02;72.93;99237.41;1778188;80;21546;-81
2021/01/17 04:03:28;;;;;;;97.22;24.37;;;;;;;-20.01;72.92;99237.28;1778056;79;21526;-78
2021/01/17 04:05:55;;;;;;;87.95;24.10;;;;;;;-19.98;73.14;99238.33;1777959;80;20948;-79
2021/01/17 04:08:22;;;;;;;69.22;19.92;;;;;;;-19.97;73.19;99241.77;1777979;80;20931;-77
2021/01/17 04:10:50;;;;;;;50.85;13.15;;;;;;;-19.98;73.09;99239.63;1778023;79;20944;-80
2021/01/17 04:13:17;;;;;;;75.95;20.48;;;;;;;-20.01;72.91;99239.89;1778212;80;20968;-80
2021/01/17 04:15:45;;;;;;;97.05;24.65;;;;;;;-20.08;72.87;99233.53;1778477;79;22204;-80
2021/01/17 04:18:13;;;;;;;157.03;37.67;;;;;;;-20.10;72.99;99236.75;1778550;79;21492;-80
2021/01/17 04:20:41;;;;;;;101.40;25.72;;;;;;;-20.09;73.17;99238.41;1779599;79;21004;-82
2021/01/17 04:23:09;;;;;;;142.05;34.55;;;;;;;-20.04;73.34;99241.94;1779597;79;21114;-82
2021/01/17 04:25:37;;;;;;;147.87;37.20;;;;;;;-20.02;73.16;99240.02;1778398;79;21008;-82
2021/01/17 04:28:10;;;;;;;208.65;48.20;;;;;;;-20.01;73.22;99248.21;1778526;79;21122;-82
2021/01/17 04:30:38;;;;;;;218.00;54.33;;;;;;;-19.98;73.27;99245.34;1778841;79;21582;-82
2021/01/17 04:33:06;;;;;;;158.32;42.60;;;;;;;-19.94;73.27;99250.17;1778246;79;21015;-80
2021/01/17 04:35:33;;;;;;;139.45;30.50;;;;;;;-19.89;73.24;99249.30;1777987;79;20964;-81
2021/01/17 04:38:02;;;;;;;197.13;48.33;;;;;;;-19.82;73.29;99255.67;1777989;80;21471;-78
2021/01/17 04:40:30;;;;;;;210.30;48.95;;;;;;;-19.81;73.17;99250.79;1778054;80;21183;-82
2021/01/17 04:43:15;;;;;;;234.92;51.70;;;;;;;-19.76;73.39;99253.02;1777959;80;20988;-79
2021/01/17 04:45:43;;;;;;;195.77;50.52;;;;;;;-19.69;73.58;99255.45;1765926;80;20956;-81
2021/01/17 04:48:11;;;;;;;160.72;42.15;;;;;;;-19.53;73.95;99253.14;1777958;79;21047;-80
2021/01/17 04:50:39;;;;;;;130.50;37.20;;;;;;;-19.40;74.00;99247.17;1778029;79;20988;-75
2021/01/17 04:53:07;;;;;;;189.85;48.58;;;;;;;-19.28;74.11;99249.67;1777967;80;21371;-78
2021/01/17 04:55:35;;;;;;;248.28;55.65;;;;;;;-19.15;74.19;99243.72;1778024;79;21478;-78
2021/01/17 04:58:11;;;;;;;223.70;57.85;;;;;;;-19.05;74.17;99248.45;1777970;80;20913;-77
2021/01/17 05:00:44;;;;;;;204.80;51.75;;;;;;;-18.92;74.22;99250.33;1777942;79;20949;-80
2021/01/17 05:03:29;;;;;;;210.17;53.83;;;;;;;-18.76;74.21;99241.47;1777958;79;20913;-73
2021/01/17 05:06:18;;;;;;;125.82;30.37;;;;;;;-18.62;74.09;99236.78;1778083;80;21344;-74
2021/01/17 05:08:45;;;;;;;180.22;47.05;;;;;;;-18.48;74.09;99238.95;1777966;80;20925;-76
2021/01/17 05:11:41;;;;;;;106.80;26.25;;;;;;;-18.42;73.87;99234.44;1776804;80;21467;-77
2021/01/17 05:17:00;;;;;;;135.65;40.48;;;;;;;-18.32;73.93;99229.19;1888694;76;22777;-75
2021/01/17 05:19:27;;;;;;;151.90;46.30;;;;;;;-18.32;74.08;99228.70;1770871;80;20998;-77
2021/01/17 05:21:55;;;;;;;149.27;42.85;;;;;;;-18.22;74.06;99228.20;1746639;81;22746;-76
2021/01/17 05:24:22;;;;;;;114.37;33.05;;;;;;;-18.16;73.80;99230.73;1747619;80;21018;-79
2021/01/17 05:26:55;;;;;;;117.30;36.60;;;;;;;-18.05;73.96;99230.58;1756143;80;20946;-77
2021/01/17 05:29:24;;;;;;;122.78;35.17;;;;;;;-17.99;73.97;99226.08;1756868;80;21056;-76
2021/01/17 05:31:57;;;;;;;117.60;34.05;;;;;;;-17.93;74.06;99231.23;1761274;80;20992;-76
2021/01/17 05:34:26;;;;;;;115.47;35.63;;;;;;;-17.85;73.94;99227.39;1722124;81;22238;-76
2021/01/17 05:37:11;;;;;;;112.95;34.48;;;;;;;-17.78;73.51;99233.71;1777743;80;21580;-76
2021/01/17 05:40:06;;;;;;;117.60;31.95;;;;;;;-17.76;73.09;99232.59;1752192;82;21560;-87
2021/01/17 05:42:39;;;;;;;136.95;37.10;;;;;;;-17.72;72.76;99230.52;1838008;78;21156;-83
2021/01/17 05:45:22;;;;;;;121.13;35.13;;;;;;;-17.72;72.44;99234.45;1840345;78;21054;-81
2021/01/17 05:47:56;;;;;;;;;;;;;;;-17.75;72.09;99239.50;1841294;78;21699;-82
2021/01/17 05:50:25;;;;;;;106.22;30.85;;;;;;;-17.81;71.68;99236.62;1837661;78;20206;-84
2021/01/17 05:52:59;;;;;;;112.00;29.70;;;;;;;-17.88;71.47;99251.27;1837754;78;21021;-78
2021/01/17 05:55:39;;;;;;;92.75;27.45;;;;;;;-17.91;71.51;99248.96;1838313;78;21164;-82
2021/01/17 05:58:32;;;;;;;88.00;27.65;;;;;;;-17.88;71.51;99242.92;1838724;78;20978;-82
2021/01/17 06:01:18;;;;;;;86.47;26.52;;;;;;;-17.86;71.26;99245.40;1838957;78;21192;-82
2021/01/17 06:03:55;;;;;;;63.95;21.57;;;;;;;-17.87;71.06;99246.37;1838653;78;21089;-78
2021/01/17 06:06:31;;;;;;;74.72;24.18;;;;;;;-17.87;71.12;99241.13;1838836;78;21600;-84
2021/01/17 06:09:00;;;;;;;48.38;15.30;;;;;;;-17.85;71.18;99250.50;1756167;79;20942;-82
2021/01/17 06:11:28;;;;;;;51.20;16.00;;;;;;;-17.87;71.09;99252.92;1801307;79;20994;-75
2021/01/17 06:14:00;;;;;;;66.77;20.37;;;;;;;-17.95;71.19;99255.45;1782647;80;21601;-78
2021/01/17 06:16:42;;;;;;;88.58;24.72;;;;;;;-18.00;71.45;99257.67;1786097;79;20902;-79
2021/01/17 06:19:10;;;;;;;74.47;23.67;;;;;;;-17.99;71.97;99256.22;1816565;79;21458;-79
2021/01/17 06:21:39;;;;;;;81.05;22.32;;;;;;;-17.93;72.34;99253.03;1814199;79;21457;-78
2021/01/17 06:24:09;;;;;;;98.92;28.32;;;;;;;-17.87;72.29;99258.16;1816290;78;20926;-86
2021/01/17 06:26:38;;;;;;;87.72;25.88;;;;;;;-17.86;72.27;99258.02;1774682;80;21209;-79
2021/01/17 06:29:10;;;;;;;68.02;17.25;;;;;;;-17.78;72.42;99263.38;1742467;82;21087;-80
2021/01/17 06:31:38;;;;;;;;;;;;;;;-17.69;72.51;99268.73;1742709;82;21559;-80
2021/01/17 06:34:09;;;;;;;111.45;29.92;;;;;;;-17.63;72.72;99276.83;1749929;82;20520;-80
2021/01/17 06:36:41;;;;;;;80.72;22.73;;;;;;;-17.58;72.97;99277.22;1774489;80;20948;-70
2021/01/17 06:39:22;;;;;;;94.20;27.85;;;;;;;-17.50;73.16;99277.33;1754760;80;21361;-82
2021/01/17 06:41:54;;;;;;;123.00;31.05;;;;;;;-17.48;72.96;99276.70;1783939;80;21061;-84
2021/01/17 06:44:33;;;;;;;104.80;28.45;;;;;;;-17.41;73.04;99288.27;1784519;80;21028;-85
2021/01/17 06:47:01;;;;;;;106.27;28.60;;;;;;;-17.28;73.11;99283.16;1785385;80;21011;-87
2021/01/17 06:49:32;;;;;;;101.87;30.27;;;;;;;-17.20;72.77;99281.45;1783890;80;20985;-84
2021/01/17 06:52:05;;;;;;;111.37;30.12;;;;;;;-17.15;72.85;99275.77;1784927;80;22331;-84
2021/01/17 06:54:41;;;;;;;107.37;32.05;;;;;;;-17.06;72.99;99271.78;1784179;80;21594;-84
2021/01/17 06:57:09;;;;;;;122.35;35.30;;;;;;;-16.95;73.16;99279.94;1744082;82;21051;-80
2021/01/17 06:59:47;;;;;;;158.40;42.70;;;;;;;-16.80;73.54;99276.33;1744604;82;21538;-78
2021/01/17 07:02:26;;;;;;;164.15;41.15;;;;;;;-16.69;73.30;99272.62;1784113;80;21136;-76
2021/01/17 07:05:37;;;;;;;117.95;33.30;;;;;;;-16.61;73.14;99267.42;1783755;80;21539;-78
2021/01/17 07:08:38;;;;;;;135.45;42.20;;;;;;;-16.46;73.83;99267.23;1796017;79;21595;-78
2021/01/17 07:11:34;;;;;;;139.05;38.10;;;;;;;-16.25;74.12;99270.38;1813744;79;20982;-76
2021/01/17 07:14:06;;;;;;;136.12;42.35;;;;;;;-16.09;73.79;99273.11;1814096;79;21002;-75
2021/01/17 07:16:34;;;;;;;93.00;30.82;;;;;;;-15.93;74.85;99267.64;1814065;79;21104;-76
2021/01/17 07:19:05;;;;;;;64.72;19.75;;;;;;;-15.75;74.78;99271.88;1814116;79;22234;-75
2021/01/17 07:21:36;;;;;;;131.60;38.53;;;;;;;-15.60;74.41;99275.25;1814376;79;21556;-78
2021/01/17 07:24:07;;;;;;;105.03;32.43;;;;;;;-15.53;74.12;99269.15;1813993;79;21002;-76
2021/01/17 07:27:09;;;;;;;122.42;37.53;;;;;;;-15.39;74.04;99270.37;1814053;79;21571;-72
2021/01/17 07:29:37;;;;;;;100.67;33.78;;;;;;;-15.18;73.98;99273.44;1725311;81;21579;-72
2021/01/17 07:32:11;;;;;;;97.88;34.73;;;;;;;-14.90;73.32;99264.78;1727085;83;22209;-81
2021/01/17 07:34:39;;;;;;;93.25;28.98;;;;;;;-14.65;72.62;99267.48;1761495;79;21093;-87
2021/01/17 07:37:07;;;;;;;105.92;33.48;;;;;;;-14.46;72.94;99265.87;1779316;80;20899;-84
2021/01/17 07:39:34;;;;;;;95.90;31.07;;;;;;;-14.33;72.43;99258.73;1790665;77;20954;-85
2021/01/17 07:42:03;;;;;;;84.58;28.87;;;;;;;-14.24;71.39;99259.90;1789104;79;20974;-81
2021/01/17 07:44:32;;;;;;;76.95;24.52;;;;;;;-14.12;71.01;99262.54;1789833;80;21368;-80
2021/01/17 07:47:05;;;;;;;87.35;28.25;;;;;;;-13.98;70.37;99262.86;1788563;80;21045;-80
2021/01/17 07:49:35;;;;;;;79.55;27.65;;;;;;;-13.73;70.43;99253.91;1789158;80;20998;-83
2021/01/17 07:52:03;;;;;;;89.40;29.15;;;;;;;-13.50;70.25;99256.66;1789175;80;20993;-83
2021/01/17 07:54:32;;;;;;;94.17;30.23;;;;;;;-13.38;69.76;99256.13;1788969;80;20922;-81
2021/01/17 07:57:05;;;;;;;95.77;32.73;;;;;;;-13.21;69.52;99256.05;1788949;80;21796;-82
2021/01/17 07:59:33;;;;;;;103.05;34.65;;;;;;;-13.04;69.97;99249.67;1789109;80;21069;-81
2021/01/17 08:02:03;;;;;;;111.25;34.48;;;;;;;-12.95;69.62;99261.86;1788772;80;20985;-75
2021/01/17 08:04:30;;;;;;;86.90;31.80;;;;;;;-12.90;69.03;99262.16;1788772;80;21043;-74
2021/01/17 08:06:59;;;;;;;95.75;31.05;;;;;;;-12.90;68.38;99262.16;1788989;80;21481;-75
2021/01/17 08:09:44;;;;;;;78.05;29.32;;;;;;;-12.98;67.67;99255.59;1806011;79;22530;-83
2021/01/17 08:12:34;;;;;;;88.60;30.25;;;;;;;-13.02;67.64;99261.72;1805429;79;21043;-79
2021/01/17 08:15:16;;;;;;;70.83;25.12;;;;;;;-12.96;68.27;99261.53;1803367;78;20938;-75
2021/01/17 08:17:44;;;;;;;113.47;36.53;;;;;;;-12.90;68.84;99256.88;1795457;78;21001;-78
2021/01/17 08:20:27;;;;;;;86.70;28.65;;;;;;;-12.96;67.94;99260.20;1819506;78;21582;-78
2021/01/17 08:23:05;;;;;;;105.35;33.02;;;;;;;-12.91;67.77;99253.91;1801835;78;21500;-79
2021/01/17 08:25:51;;;;;;;68.62;24.40;;;;;;;-12.72;68.12;99264.05;1786628;80;21148;-80
2021/01/17 08:28:39;;;;;;;68.80;23.00;;;;;;;-12.43;67.23;99252.78;1786695;79;21057;-79
2021/01/17 08:31:35;;;;;;;68.22;19.82;;;;;;;-11.99;66.70;99255.23;1786862;80;20994;-80
2021/01/17 08:34:11;;;;;;;83.35;23.22;;;;;;;-11.52;64.68;99258.38;1787039;79;21159;-81
2021/01/17 08:36:39;;;;;;;70.20;24.37;;;;;;;-11.04;65.15;99264.15;1787112;80;21371;-80
2021/01/17 08:39:07;;;;;;;77.15;25.10;;;;;;;-10.77;63.41;99271.91;1787079;80;20923;-81
2021/01/17 08:41:35;;;;;;;62.85;22.37;;;;;;;-10.54;62.56;99265.14;1787262;80;21014;-75
2021/01/17 08:44:03;;;;;;;66.40;20.97;;;;;;;-10.18;61.97;99257.91;1786845;80;21042;-79
2021/01/17 08:46:38;;;;;;;67.53;23.57;;;;;;;-9.74;60.56;99252.36;1773932;80;21485;-79
2021/01/17 08:49:05;;;;;;;56.08;22.25;;;;;;;-9.41;59.29;99253.11;1786865;80;21198;-79
2021/01/17 08:51:33;;;;;;;62.48;22.13;;;;;;;-9.08;58.65;99250.12;1786755;80;21010;-80
2021/01/17 08:54:25;;;;;;;60.55;21.65;;;;;;;-8.79;59.19;99257.02;1786525;80;20994;-76
2021/01/17 08:56:53;;;;;;;44.80;15.95;;;;;;;-8.66;57.90;99251.71;1788784;78;21064;-78
2021/01/17 08:59:33;;;;;;;65.40;23.42;;;;;;;-8.67;55.86;99250.11;1788993;79;21045;-80
2021/01/17 09:02:00;;;;;;;62.35;23.32;;;;;;;-8.69;56.27;99250.81;1789647;80;21202;-83
2021/01/17 09:04:28;;;;;;;59.65;21.85;;;;;;;-8.68;56.46;99245.80;1788697;80;21015;-79
2021/01/17 09:06:56;;;;;;;72.25;26.97;;;;;;;-8.79;54.91;99247.70;1788570;80;20997;-82
2021/01/17 09:09:24;;;;;;;64.85;21.48;;;;;;;-8.77;56.28;99241.67;1818837;78;20965;-79
2021/01/17 09:11:51;;;;;;;58.25;22.55;;;;;;;-8.42;55.13;99242.38;1828810;78;21032;-73
2021/01/17 09:14:27;;;;;;;56.10;23.05;;;;;;;-8.12;54.68;99241.48;1835963;78;22332;-77
2021/01/17 09:17:03;;;;;;;43.80;18.20;;;;;;;-7.82;53.80;99233.08;1838287;77;21140;-83
2021/01/17 09:19:34;;;;;;;48.00;16.20;;;;;;;-7.58;52.75;99236.98;1813949;78;21025;-77
2021/01/17 09:22:06;;;;;;;49.08;16.55;;;;;;;-7.36;53.48;99235.18;1815475;78;20982;-84
2021/01/17 09:24:36;;;;;;;50.17;19.02;;;;;;;-7.23;52.94;99241.52;1839807;78;20994;-81
2021/01/17 09:27:07;;;;;;;50.12;19.35;;;;;;;-7.32;52.48;99235.59;1839800;78;21368;-80
2021/01/17 09:29:39;;;;;;;42.95;16.65;;;;;;;-7.19;51.60;99238.74;1843750;77;21564;-81
2021/01/17 09:32:14;;;;;;;43.90;16.37;;;;;;;-7.03;51.51;99238.30;1849951;77;20993;-79
2021/01/17 09:34:44;;;;;;;58.42;19.52;;;;;;;-7.07;52.54;99226.41;1823628;77;21025;-78
2021/01/17 09:37:17;;;;;;;39.73;15.08;;;;;;;-6.87;50.38;99234.31;1850475;77;21076;-81
2021/01/17 09:39:49;;;;;;;;;;;;;;;-6.73;50.61;99237.24;1851699;77;21468;-78
2021/01/17 09:42:20;;;;;;;31.12;11.88;;;;;;;-6.56;49.86;99228.23;1848372;77;20716;-80
2021/01/17 09:44:54;;;;;;;39.98;14.63;;;;;;;-6.39;48.44;99218.19;1849868;77;21477;-78
2021/01/17 09:47:23;;;;;;;33.67;12.90;;;;;;;-6.28;48.54;99215.32;1849903;77;21461;-80
2021/01/17 09:49:51;;;;;;;34.33;13.22;;;;;;;-6.18;47.56;99211.66;1849662;77;21041;-78
2021/01/17 09:52:23;;;;;;;32.93;13.55;;;;;;;-6.01;47.15;99214.11;1849741;77;22364;-81
2021/01/17 09:54:53;;;;;;;44.67;16.57;;;;;;;-5.78;46.69;99215.36;1825102;77;20926;-80
2021/01/17 09:57:23;;;;;;;34.60;13.38;;;;;;;-5.85;46.24;99218.59;1850983;77;21461;-81
2021/01/17 09:59:54;;;;;;;33.78;12.95;;;;;;;-5.61;46.60;99209.73;1849387;77;21104;-76
2021/01/17 10:02:25;;;;;;;35.78;14.38;;;;;;;-5.37;46.01;99211.56;1849166;77;21057;-76
2021/01/17 10:04:53;;;;;;;30.75;12.18;;;;;;;-5.29;46.40;99217.67;1849862;77;21712;-75
2021/01/17 10:07:22;;;;;;;37.13;15.32;;;;;;;-5.20;45.92;99210.99;1842116;77;21480;-74
2021/01/17 10:09:51;;;;;;;32.40;15.00;;;;;;;-5.03;45.04;99212.02;1781724;80;21064;-75
2021/01/17 10:12:22;;;;;;;45.03;18.10;;;;;;;-4.92;44.90;99208.59;1786451;80;20914;-75
2021/01/17 10:14:49;;;;;;;38.80;13.22;;;;;;;-4.84;44.16;99210.97;1786587;80;21052;-75
2021/01/17 10:17:18;;;;;;;46.58;16.50;;;;;;;-4.75;43.08;99214.17;1786542;80;21583;-76
2021/01/17 10:19:47;;;;;;;39.90;16.65;;;;;;;-4.67;43.74;99213.86;1786799;80;20962;-76
2021/01/17 10:22:16;;;;;;;33.40;13.03;;;;;;;-4.63;42.78;99220.41;1786880;80;21080;-74
2021/01/17 10:24:44;;;;;;;30.23;12.70;;;;;;;-4.74;42.26;99215.28;1786809;80;21115;-76
2021/01/17 10:27:12;;;;;;;34.88;14.15;;;;;;;-4.75;43.64;99212.83;1787126;80;21080;-76
2021/01/17 10:29:42;;;;;;;33.73;14.05;;;;;;;-4.55;43.45;99211.22;1786720;80;21361;-76
2021/01/17 10:32:12;;;;;;;37.08;14.07;;;;;;;-4.76;41.75;99211.20;1786769;80;20975;-75
2021/01/17 10:34:45;;;;;;;41.37;14.33;;;;;;;-5.06;44.55;99213.28;1786920;80;20933;-76
2021/01/17 10:37:18;;;;;;;30.70;12.45;;;;;;;-5.11;45.63;99220.34;1786874;80;21578;-75
2021/01/17 10:39:47;;;;;;;37.42;13.95;;;;;;;-5.05;43.21;99212.76;1761313;80;21163;-76
2021/01/17 10:42:26;;;;;;;35.25;12.47;;;;;;;-5.09;43.84;99208.89;1786942;80;21579;-77
2021/01/17 10:45:02;;;;;;;29.75;11.90;;;;;;;-5.24;44.41;99209.28;1786804;80;20969;-75
2021/01/17 10:47:46;;;;;;;35.20;13.53;;;;;;;-5.39;43.02;99198.93;1786958;80;21048;-75
2021/01/17 10:50:17;;;;;;;28.62;12.10;;;;;;;-5.41;43.84;99201.53;1801244;78;21142;-75
2021/01/17 10:53:05;;;;;;;37.98;15.48;;;;;;;-5.45;44.46;99196.32;1813870;79;21177;-76
2021/01/17 10:55:37;;;;;;;37.60;13.15;;;;;;;-5.31;43.88;99201.84;1750526;81;22135;-75
2021/01/17 10:58:06;;;;;;;35.10;13.05;;;;;;;-5.13;42.46;99200.48;1755601;81;21025;-75
2021/01/17 11:00:33;;;;;;;31.40;12.23;;;;;;;-5.18;42.88;99202.19;1755638;81;21540;-75
2021/01/17 11:03:08;;;;;;;34.78;13.83;;;;;;;-5.10;42.34;99192.53;1755484;81;20944;-76
2021/01/17 11:05:36;;;;;;;34.35;12.00;;;;;;;-5.02;44.59;99190.90;1753450;81;21152;-76
2021/01/17 11:08:04;;;;;;;31.35;12.07;;;;;;;-4.74;43.89;99187.16;1761953;81;22160;-75
2021/01/17 11:10:32;;;;;;;33.45;12.63;;;;;;;-4.59;42.09;99193.44;1670295;83;21214;-76
2021/01/17 11:13:00;;;;;;;34.73;13.30;;;;;;;-4.37;43.08;99189.22;1725923;83;21508;-76
2021/01/17 11:15:30;;;;;;;33.75;13.70;;;;;;;-3.97;42.32;99185.93;1725591;83;21147;-76
2021/01/17 11:17:58;;;;;;;31.60;12.03;;;;;;;-3.78;40.18;99182.64;1726941;82;21167;-76
2021/01/17 11:20:31;;;;;;;32.67;12.63;;;;;;;-3.99;39.81;99180.80;1783181;80;21300;-78
2021/01/17 11:23:04;;;;;;;36.53;14.93;;;;;;;-4.32;40.42;99177.81;1783148;80;20949;-78
2021/01/17 11:25:33;;;;;;;36.65;14.83;;;;;;;-4.36;42.97;99172.63;1783426;80;20890;-78
2021/01/17 11:28:03;;;;;;;37.65;15.53;;;;;;;-4.32;40.61;99172.46;1783466;80;21048;-78
2021/01/17 11:30:32;;;;;;;35.03;13.90;;;;;;;-4.54;41.30;99176.69;1783412;80;20985;-78
2021/01/17 11:33:09;;;;;;;36.80;15.15;;;;;;;-4.62;41.27;99178.37;1783532;80;20930;-77
2021/01/17 11:35:41;;;;;;;27.90;11.63;;;;;;;-4.49;40.66;99178.16;1783270;80;20989;-76
2021/01/17 11:38:10;;;;;;;33.90;13.43;;;;;;;-4.56;41.08;99170.22;1783302;80;21147;-78
2021/01/17 11:40:37;;;;;;;40.63;15.20;;;;;;;-4.55;40.68;99173.19;1783461;80;21043;-77
2021/01/17 11:43:11;;;;;;;38.70;15.05;;;;;;;-4.61;40.39;99171.41;1783548;80;20930;-77
2021/01/17 11:45:44;;;;;;;49.18;17.48;;;;;;;-4.76;41.26;99179.06;1783114;80;21239;-77
2021/01/17 11:48:12;;;;;;;46.08;17.98;;;;;;;-4.80;41.43;99172.52;1783545;80;20929;-77
2021/01/17 11:50:44;;;;;;;35.52;13.72;;;;;;;-4.76;41.85;99175.04;1783253;80;21126;-78
2021/01/17 11:53:14;;;;;;;30.77;11.70;;;;;;;-4.66;41.87;99167.29;1783177;80;21064;-79
2021/01/17 11:55:49;;;;;;;34.95;12.50;;;;;;;-4.63;41.77;99162.81;1783396;80;21075;-79
2021/01/17 11:58:17;;;;;;;36.15;15.58;;;;;;;-4.78;42.41;99165.08;1783398;80;21366;-79
2021/01/17 12:00:52;;;;;;;40.28;16.52;;;;;;;-4.77;42.24;99160.83;1783220;80;20945;-77
2021/01/17 12:03:29;;;;;;;36.38;15.03;;;;;;;-4.45;41.45;99161.41;1783420;80;21064;-78
2021/01/17 12:06:18;;;;;;;37.03;15.58;;;;;;;-4.15;42.84;99157.36;1783338;80;21542;-79
2021/01/17 12:09:09;;;;;;;35.03;13.48;;;;;;;-3.85;42.02;99159.13;1803216;78;21134;-83
2021/01/17 12:11:48;;;;;;;41.48;14.58;;;;;;;-3.63;41.56;99160.20;1809474;79;21425;-78
2021/01/17 12:14:21;;;;;;;38.55;14.83;;;;;;;-3.57;42.45;99157.93;1791595;79;20978;-77
2021/01/17 12:16:53;;;;;;;38.95;15.53;;;;;;;-3.42;40.69;99156.09;1794922;79;20934;-79
2021/01/17 12:19:22;;;;;;;28.77;13.07;;;;;;;-3.18;40.80;99159.05;1816204;79;21450;-78
2021/01/17 12:21:52;;;;;;;34.48;14.23;;;;;;;-3.13;38.91;99161.84;1815774;79;21365;-82
2021/01/17 12:24:20;;;;;;;32.70;13.95;;;;;;;-3.41;39.44;99160.41;1789203;79;22176;-80
2021/01/17 12:26:48;;;;;;;36.90;14.28;;;;;;;-3.24;39.64;99164.53;1815931;79;21475;-79
2021/01/17 12:29:16;;;;;;;36.77;14.98;;;;;;;-3.13;40.53;99159.16;1815716;79;20987;-79